Historyczne dane pomiarowe

Dodano dane terminowe – wersja testowa.

Dane z okresu 1951-2019

Wersja bazy: 1.34 [2019-03-16, lista zmian], aktualizacja planowana na 2019-04-15

Dane meteo z obszaru Polski uzyskane na podstawie danych udostępnionych przez Instytut Meteorologii i Gospodarki Wodnej – Państwowy Instytut Badawczy.

 

Wybierz Datę:    

       

TemperaturaWilgotnośćWiatrCiśnienieOpadyŚniegCzas trwania zjawisk
 Stacja t tx tn tng RH VA  wxwx mslp ppp RRR   cm mm wxwxwxwxwxwxwx
1961-08-14 10.2 14.8 3.4 1.0 84.0- 2.7 0.3---- 0.0------------
1961-08-13 9.1 13.3 7.7 10.4 94.5- 8.0 1.0---- 23.5------------
1961-08-12 15.5 21.9 12.4 14.5 87.0- 7.3 1.0---- 21.3------------
1961-08-11 22.7 30.0 15.8 11.7 61.0- 0.7 3.7---- 1.5------------
1961-08-10 22.6 28.7 13.7 11.7 65.3- 1.0 2.0---- 0.0------------
1961-08-09 21.1 27.5 14.1 10.7 74.3- 4.3 2.0---- 0.0------------
1961-08-08 18.5 24.1 15.9 15.3 83.3- 4.0 2.3---- 0.0------------
1961-08-07 20.8 26.9 10.4 7.5 67.3- 3.7 1.3---- 0.0------------
1961-08-06 18.3 26.5 8.1 6.0 73.5- 0.0 1.0---- 0.0------------
1961-08-05 15.0 20.7 11.4 10.0 77.5- 4.7 1.3---- 0.0------------
1961-08-04 12.2 16.4 10.0 9.5 82.0- 6.3 0.7---- 0.0------------
1961-08-03 14.0 19.6 10.1 10.0 85.0- 8.0 1.0---- 17.1------------
1961-08-02 15.1 22.4 4.9 10.7 76.3- 1.7 0.7---- 0.0------------
1961-08-01 12.4 19.3 6.7 4.1 73.3- 3.0 2.0---- 0.0------------
1961-07-31 9.7 14.4 6.9 7.1 87.3- 6.0 2.7---- 0.8------------
1961-07-30 7.4 8.7 6.9 7.0 96.0- 8.0 1.3---- 44.9------------
1961-07-29 10.0 20.8 8.1 12.6 96.8- 8.0 0.7---- 51.1------------
1961-07-28 18.2 25.1 8.2 11.2 73.5- 6.0 1.3---- 15.2------------
1961-07-27 19.0 25.2 6.9 4.9 55.0- 3.7 1.7---- 0.0------------
1961-07-26 12.2 19.2 4.7 2.1 71.8- 2.7 1.3---- 0.0------------
1961-07-25 10.3 12.1 8.6 8.2 75.0- 8.0 0.3---- 0.0------------
1961-07-24 11.2 14.6 9.6 9.6 80.8- 8.0 0.3---- 0.0------------
1961-07-23 12.7 16.7 5.3 2.5 83.3- 5.0 1.0---- 2.8------------
1961-07-22 12.2 17.4 9.5 7.3 81.0- 7.0 1.7---- 2.3------------
1961-07-21 12.1 16.7 7.2 3.2 77.5- 5.7 2.0---- 0.6------------
1961-07-20 10.3 12.4 6.1 3.2 93.0- 7.7 0.3---- 17.7------------
1961-07-19 11.5 17.2 8.2 5.5 84.5- 7.0 0.7---- 7.5------------
1961-07-18 12.4 17.0 5.5 2.0 72.8- 6.3 2.3---- 0.0------------
1961-07-17 12.9 18.2 10.1 8.9 70.0- 2.3 1.0---- 0.0------------
1961-07-16 14.6 19.6 11.7 10.7 70.5- 4.3 3.7---- 1.1------------
1961-07-15 16.4 21.0 6.7 4.4 63.5- 6.0 2.0---- 7.7------------
1961-07-14 10.6 15.8 7.9 6.5 71.0- 4.0 2.7---- 0.0------------
1961-07-13 17.1 25.0 11.0 6.9 74.3- 3.3 4.0---- 11.7------------
1961-07-12 17.8 23.9 6.8 4.2 68.3- 4.0 0.7---- 0.0------------
1961-07-11 13.1 19.0 5.6 2.5 76.3- 2.7 2.7---- 0.0------------
1961-07-10 11.9 17.7 8.4 5.3 78.3- 7.3 4.0---- 6.1------------
1961-07-09 12.7 18.5 6.7 3.2 72.0- 5.7 1.3---- 0.5------------
1961-07-08 11.5 16.2 6.0 3.3 73.3- 4.0 0.3---- 0.0------------
1961-07-07 11.5 14.3 2.5 -0.4 66.5- 5.3 1.3---- 0.0------------
1961-07-06 9.7 14.3 3.4 0.6 75.8- 3.7 3.0---- 0.0------------
1961-07-05 10.9 17.8 8.9 10.6 78.0- 6.0 1.3---- 0.4------------
1961-07-04 19.9 27.1 11.7 7.5 66.8- 4.0 1.7---- 6.5------------
1961-07-03 19.3 27.0 8.9 5.8 61.3- 0.3 1.7---- 0.0------------
1961-07-02 17.5 24.5 8.1 5.4 67.5- 0.7 0.7---- 0.0------------
1961-07-01 17.3 23.6 7.1 4.4 68.8- 0.3 1.3---- 0.0------------
1961-06-30 14.2 20.2 7.6 5.1 72.5- 0.3 1.3---- 0.0------------
1961-06-29 11.6 17.1 4.9 2.6 71.8- 6.0 1.3---- 0.0------------
1961-06-28 10.6 22.2 9.5 13.3 86.0- 7.7 2.3---- 5.0------------
1961-06-27 22.4 27.5 13.8 10.8 58.3- 2.7 2.3---- 16.7------------
1961-06-26 19.5 27.0 10.0 6.9 65.3- 4.7 2.0---- 0.0------------
1961-06-25 18.4 26.4 6.1 3.4 55.3- 0.3 1.0---- 0.0------------
1961-06-24 16.2 22.1 9.4 6.5 65.5- 2.0 3.3---- 0.0------------
1961-06-23 15.2 20.0 13.0 9.8 77.3- 3.3 2.7---- 0.0------------
1961-06-22 16.1 22.7 6.2 4.3 67.5- 4.0 1.0---- 12.9------------
1961-06-21 15.3 21.3 4.3 2.5 64.5- 2.3 1.3---- 0.0------------
1961-06-20 13.0 16.7 11.6 11.7 69.5- 6.0 1.3---- 0.0------------
1961-06-19 18.3 25.5 10.7 7.9 74.0- 2.7 1.3---- 0.1------------
1961-06-18 16.6 22.4 5.9 4.1 64.0- 2.7 1.3---- 0.0------------
1961-06-17 13.4 19.3 3.5 1.6 68.5- 2.0 1.3---- 0.0------------
1961-06-16 10.7 17.8 4.9 2.4 72.3- 0.3 3.0---- 0.0------------
328.0 ms

 

Źródłem pochodzenia danych jest Instytut Meteorologii i Gospodarki Wodnej – Państwowy Instytut Badawczy. Dane Instytutu Meteorologii i Gospodarki Wodnej – Państwowego Instytutu Badawczego zostały przetworzone.

Dane źródłowe można odnaleźć na stronie https://dane.imgw.pl